sensor_id;sensor_type;location;lat;lon;timestamp;P1;durP1;ratioP1;P2;durP2;ratioP2
72584;SDS011;73873;40.084;32.908;2024-03-02T00:01:45;14.68;;;7.55;;
72584;SDS011;73873;40.084;32.908;2024-03-02T00:04:13;14.07;;;7.30;;
72584;SDS011;73873;40.084;32.908;2024-03-02T00:06:40;11.70;;;5.70;;
72584;SDS011;73873;40.084;32.908;2024-03-02T00:09:07;13.67;;;6.47;;
72584;SDS011;73873;40.084;32.908;2024-03-02T00:11:36;15.10;;;6.63;;
72584;SDS011;73873;40.084;32.908;2024-03-02T00:14:03;14.88;;;5.60;;
72584;SDS011;73873;40.084;32.908;2024-03-02T00:16:30;15.52;;;6.70;;
72584;SDS011;73873;40.084;32.908;2024-03-02T00:19:01;14.90;;;6.95;;
72584;SDS011;73873;40.084;32.908;2024-03-02T00:21:29;15.97;;;8.10;;
72584;SDS011;73873;40.084;32.908;2024-03-02T00:23:57;21.75;;;10.50;;
72584;SDS011;73873;40.084;32.908;2024-03-02T00:26:25;15.50;;;7.80;;
72584;SDS011;73873;40.084;32.908;2024-03-02T00:28:54;16.70;;;8.25;;
72584;SDS011;73873;40.084;32.908;2024-03-02T00:31:22;18.85;;;9.23;;
72584;SDS011;73873;40.084;32.908;2024-03-02T00:33:49;22.40;;;10.10;;
72584;SDS011;73873;40.084;32.908;2024-03-02T00:36:20;21.50;;;9.40;;
72584;SDS011;73873;40.084;32.908;2024-03-02T00:38:51;19.05;;;8.48;;
72584;SDS011;73873;40.084;32.908;2024-03-02T00:41:29;17.02;;;7.85;;
72584;SDS011;73873;40.084;32.908;2024-03-02T00:44:01;19.70;;;9.02;;
72584;SDS011;73873;40.084;32.908;2024-03-02T00:46:30;19.77;;;9.43;;
72584;SDS011;73873;40.084;32.908;2024-03-02T00:49:25;16.63;;;8.05;;
72584;SDS011;73873;40.084;32.908;2024-03-02T00:51:52;18.95;;;8.88;;
72584;SDS011;73873;40.084;32.908;2024-03-02T00:54:21;20.10;;;9.82;;
72584;SDS011;73873;40.084;32.908;2024-03-02T00:56:49;17.52;;;7.72;;
72584;SDS011;73873;40.084;32.908;2024-03-02T01:02:33;15.55;;;6.88;;
72584;SDS011;73873;40.084;32.908;2024-03-02T01:05:01;10.85;;;5.13;;
72584;SDS011;73873;40.084;32.908;2024-03-02T01:07:28;11.60;;;5.07;;
72584;SDS011;73873;40.084;32.908;2024-03-02T01:09:55;15.07;;;6.80;;
72584;SDS011;73873;40.084;32.908;2024-03-02T01:12:22;14.97;;;7.30;;
72584;SDS011;73873;40.084;32.908;2024-03-02T01:14:50;20.38;;;9.13;;
72584;SDS011;73873;40.084;32.908;2024-03-02T01:17:17;17.23;;;8.48;;
72584;SDS011;73873;40.084;32.908;2024-03-02T01:19:45;17.00;;;8.23;;
72584;SDS011;73873;40.084;32.908;2024-03-02T01:22:12;19.02;;;8.43;;
72584;SDS011;73873;40.084;32.908;2024-03-02T01:24:39;24.17;;;9.87;;
72584;SDS011;73873;40.084;32.908;2024-03-02T01:27:06;19.33;;;8.90;;
72584;SDS011;73873;40.084;32.908;2024-03-02T01:29:33;18.48;;;8.27;;
72584;SDS011;73873;40.084;32.908;2024-03-02T01:32:00;15.85;;;7.63;;
72584;SDS011;73873;40.084;32.908;2024-03-02T01:34:27;17.98;;;7.70;;
72584;SDS011;73873;40.084;32.908;2024-03-02T01:36:54;18.80;;;9.23;;
72584;SDS011;73873;40.084;32.908;2024-03-02T01:39:21;20.58;;;9.52;;
72584;SDS011;73873;40.084;32.908;2024-03-02T01:41:48;22.52;;;10.10;;
72584;SDS011;73873;40.084;32.908;2024-03-02T01:44:15;24.05;;;10.52;;
72584;SDS011;73873;40.084;32.908;2024-03-02T01:46:42;21.98;;;10.43;;
72584;SDS011;73873;40.084;32.908;2024-03-02T01:49:09;21.27;;;8.97;;
72584;SDS011;73873;40.084;32.908;2024-03-02T01:51:36;22.42;;;10.70;;
72584;SDS011;73873;40.084;32.908;2024-03-02T01:54:03;22.88;;;9.35;;
72584;SDS011;73873;40.084;32.908;2024-03-02T01:56:30;17.20;;;8.18;;
72584;SDS011;73873;40.084;32.908;2024-03-02T01:58:57;16.67;;;7.70;;
72584;SDS011;73873;40.084;32.908;2024-03-02T02:01:24;18.33;;;7.70;;
72584;SDS011;73873;40.084;32.908;2024-03-02T02:03:51;19.45;;;8.27;;
72584;SDS011;73873;40.084;32.908;2024-03-02T02:06:18;18.80;;;8.25;;
72584;SDS011;73873;40.084;32.908;2024-03-02T02:08:45;14.50;;;7.03;;
72584;SDS011;73873;40.084;32.908;2024-03-02T02:11:14;14.75;;;6.88;;
72584;SDS011;73873;40.084;32.908;2024-03-02T02:13:41;10.37;;;5.63;;
72584;SDS011;73873;40.084;32.908;2024-03-02T02:16:11;9.38;;;4.95;;
72584;SDS011;73873;40.084;32.908;2024-03-02T02:18:38;10.43;;;4.70;;
72584;SDS011;73873;40.084;32.908;2024-03-02T02:21:05;11.20;;;4.70;;
72584;SDS011;73873;40.084;32.908;2024-03-02T02:23:33;10.30;;;5.38;;
72584;SDS011;73873;40.084;32.908;2024-03-02T02:26:01;11.37;;;5.50;;
72584;SDS011;73873;40.084;32.908;2024-03-02T02:28:28;12.35;;;5.03;;
72584;SDS011;73873;40.084;32.908;2024-03-02T02:30:55;11.93;;;5.40;;
72584;SDS011;73873;40.084;32.908;2024-03-02T02:33:23;13.90;;;5.82;;
72584;SDS011;73873;40.084;32.908;2024-03-02T02:35:50;14.10;;;6.05;;
72584;SDS011;73873;40.084;32.908;2024-03-02T02:38:17;12.90;;;6.10;;
72584;SDS011;73873;40.084;32.908;2024-03-02T02:40:44;15.18;;;7.07;;
72584;SDS011;73873;40.084;32.908;2024-03-02T02:43:12;12.73;;;5.78;;
72584;SDS011;73873;40.084;32.908;2024-03-02T02:45:39;15.63;;;6.93;;
72584;SDS011;73873;40.084;32.908;2024-03-02T02:48:06;15.80;;;7.60;;
72584;SDS011;73873;40.084;32.908;2024-03-02T02:50:33;14.00;;;6.67;;
72584;SDS011;73873;40.084;32.908;2024-03-02T02:53:00;12.95;;;6.03;;
72584;SDS011;73873;40.084;32.908;2024-03-02T02:55:27;12.05;;;5.95;;
72584;SDS011;73873;40.084;32.908;2024-03-02T02:57:55;10.38;;;5.45;;
72584;SDS011;73873;40.084;32.908;2024-03-02T03:00:22;10.73;;;4.90;;
72584;SDS011;73873;40.084;32.908;2024-03-02T03:02:49;11.53;;;5.40;;
72584;SDS011;73873;40.084;32.908;2024-03-02T03:05:17;12.85;;;6.05;;
72584;SDS011;73873;40.084;32.908;2024-03-02T03:07:45;13.43;;;6.28;;
72584;SDS011;73873;40.084;32.908;2024-03-02T03:10:15;15.23;;;7.10;;
72584;SDS011;73873;40.084;32.908;2024-03-02T03:12:43;13.43;;;6.47;;
72584;SDS011;73873;40.084;32.908;2024-03-02T03:15:11;17.50;;;6.97;;
72584;SDS011;73873;40.084;32.908;2024-03-02T03:17:38;14.18;;;7.65;;
72584;SDS011;73873;40.084;32.908;2024-03-02T03:20:05;16.40;;;8.13;;
72584;SDS011;73873;40.084;32.908;2024-03-02T03:22:33;17.20;;;7.55;;
72584;SDS011;73873;40.084;32.908;2024-03-02T03:25:00;15.73;;;7.18;;
72584;SDS011;73873;40.084;32.908;2024-03-02T03:27:27;11.70;;;5.50;;
72584;SDS011;73873;40.084;32.908;2024-03-02T03:29:54;13.65;;;6.97;;
72584;SDS011;73873;40.084;32.908;2024-03-02T03:32:21;16.02;;;7.78;;
72584;SDS011;73873;40.084;32.908;2024-03-02T03:34:54;19.35;;;7.78;;
72584;SDS011;73873;40.084;32.908;2024-03-02T03:37:21;14.43;;;7.80;;
72584;SDS011;73873;40.084;32.908;2024-03-02T03:39:48;13.43;;;6.63;;
72584;SDS011;73873;40.084;32.908;2024-03-02T03:42:16;12.65;;;6.00;;
72584;SDS011;73873;40.084;32.908;2024-03-02T03:44:52;14.00;;;6.38;;
72584;SDS011;73873;40.084;32.908;2024-03-02T03:47:19;14.13;;;6.35;;
72584;SDS011;73873;40.084;32.908;2024-03-02T03:49:46;10.95;;;5.18;;
72584;SDS011;73873;40.084;32.908;2024-03-02T03:52:13;11.50;;;5.27;;
72584;SDS011;73873;40.084;32.908;2024-03-02T03:54:40;10.80;;;4.90;;
72584;SDS011;73873;40.084;32.908;2024-03-02T03:57:07;14.70;;;6.93;;
72584;SDS011;73873;40.084;32.908;2024-03-02T03:59:34;22.25;;;9.82;;
72584;SDS011;73873;40.084;32.908;2024-03-02T04:02:01;17.70;;;7.85;;
72584;SDS011;73873;40.084;32.908;2024-03-02T04:04:28;14.17;;;6.27;;
72584;SDS011;73873;40.084;32.908;2024-03-02T04:06:54;12.88;;;5.82;;
72584;SDS011;73873;40.084;32.908;2024-03-02T04:09:21;15.48;;;6.80;;
72584;SDS011;73873;40.084;32.908;2024-03-02T04:11:48;18.15;;;7.90;;
72584;SDS011;73873;40.084;32.908;2024-03-02T04:14:15;14.80;;;7.00;;
72584;SDS011;73873;40.084;32.908;2024-03-02T04:16:42;18.60;;;8.70;;
72584;SDS011;73873;40.084;32.908;2024-03-02T04:19:09;17.00;;;8.07;;
72584;SDS011;73873;40.084;32.908;2024-03-02T04:21:36;15.98;;;8.30;;
72584;SDS011;73873;40.084;32.908;2024-03-02T04:24:03;14.77;;;7.25;;
72584;SDS011;73873;40.084;32.908;2024-03-02T04:26:31;13.05;;;6.20;;
72584;SDS011;73873;40.084;32.908;2024-03-02T04:28:58;13.33;;;5.90;;
72584;SDS011;73873;40.084;32.908;2024-03-02T04:31:24;13.60;;;6.80;;
72584;SDS011;73873;40.084;32.908;2024-03-02T04:33:51;12.80;;;5.28;;
72584;SDS011;73873;40.084;32.908;2024-03-02T04:36:18;12.50;;;5.82;;
72584;SDS011;73873;40.084;32.908;2024-03-02T04:38:45;14.18;;;5.78;;
72584;SDS011;73873;40.084;32.908;2024-03-02T04:41:12;12.80;;;5.67;;
72584;SDS011;73873;40.084;32.908;2024-03-02T04:43:39;15.65;;;7.00;;
72584;SDS011;73873;40.084;32.908;2024-03-02T04:46:06;13.85;;;7.30;;
72584;SDS011;73873;40.084;32.908;2024-03-02T04:48:34;14.05;;;6.45;;
72584;SDS011;73873;40.084;32.908;2024-03-02T04:51:01;14.32;;;6.50;;
72584;SDS011;73873;40.084;32.908;2024-03-02T04:53:28;11.50;;;5.50;;
72584;SDS011;73873;40.084;32.908;2024-03-02T04:55:55;12.50;;;5.18;;
72584;SDS011;73873;40.084;32.908;2024-03-02T04:58:22;13.45;;;6.35;;
72584;SDS011;73873;40.084;32.908;2024-03-02T05:00:49;15.15;;;6.90;;
72584;SDS011;73873;40.084;32.908;2024-03-02T05:03:16;16.08;;;7.65;;
72584;SDS011;73873;40.084;32.908;2024-03-02T05:05:43;15.80;;;7.40;;
72584;SDS011;73873;40.084;32.908;2024-03-02T05:08:10;16.30;;;7.70;;
72584;SDS011;73873;40.084;32.908;2024-03-02T05:10:37;16.33;;;7.95;;
72584;SDS011;73873;40.084;32.908;2024-03-02T05:13:03;17.77;;;8.60;;
72584;SDS011;73873;40.084;32.908;2024-03-02T05:15:30;13.50;;;7.20;;
72584;SDS011;73873;40.084;32.908;2024-03-02T05:17:57;17.60;;;8.27;;
72584;SDS011;73873;40.084;32.908;2024-03-02T05:20:24;17.15;;;7.95;;
72584;SDS011;73873;40.084;32.908;2024-03-02T05:22:51;16.73;;;8.13;;
72584;SDS011;73873;40.084;32.908;2024-03-02T05:25:18;17.48;;;8.07;;
72584;SDS011;73873;40.084;32.908;2024-03-02T05:27:45;16.45;;;7.82;;
72584;SDS011;73873;40.084;32.908;2024-03-02T05:30:12;19.63;;;8.93;;
72584;SDS011;73873;40.084;32.908;2024-03-02T05:32:40;38.72;;;15.95;;
72584;SDS011;73873;40.084;32.908;2024-03-02T05:35:07;26.85;;;11.35;;
72584;SDS011;73873;40.084;32.908;2024-03-02T05:37:34;32.70;;;14.77;;
72584;SDS011;73873;40.084;32.908;2024-03-02T05:40:01;28.90;;;13.80;;
72584;SDS011;73873;40.084;32.908;2024-03-02T05:42:28;24.67;;;10.87;;
72584;SDS011;73873;40.084;32.908;2024-03-02T05:44:55;34.67;;;14.80;;
72584;SDS011;73873;40.084;32.908;2024-03-02T05:47:22;18.73;;;8.25;;
72584;SDS011;73873;40.084;32.908;2024-03-02T05:49:49;16.38;;;6.85;;
72584;SDS011;73873;40.084;32.908;2024-03-02T05:52:16;19.63;;;6.68;;
72584;SDS011;73873;40.084;32.908;2024-03-02T05:54:43;18.37;;;7.83;;
72584;SDS011;73873;40.084;32.908;2024-03-02T05:57:10;30.83;;;13.90;;
72584;SDS011;73873;40.084;32.908;2024-03-02T05:59:37;37.35;;;16.92;;
72584;SDS011;73873;40.084;32.908;2024-03-02T06:02:04;34.85;;;15.82;;
72584;SDS011;73873;40.084;32.908;2024-03-02T06:04:30;29.75;;;12.55;;
72584;SDS011;73873;40.084;32.908;2024-03-02T06:06:57;22.10;;;9.57;;
72584;SDS011;73873;40.084;32.908;2024-03-02T06:09:24;16.75;;;8.05;;
72584;SDS011;73873;40.084;32.908;2024-03-02T06:11:52;19.88;;;8.73;;
72584;SDS011;73873;40.084;32.908;2024-03-02T06:14:19;24.10;;;9.80;;
72584;SDS011;73873;40.084;32.908;2024-03-02T06:16:46;19.55;;;9.13;;
72584;SDS011;73873;40.084;32.908;2024-03-02T06:19:12;16.07;;;6.93;;
72584;SDS011;73873;40.084;32.908;2024-03-02T06:21:39;16.98;;;7.25;;
72584;SDS011;73873;40.084;32.908;2024-03-02T06:24:06;22.90;;;9.55;;
72584;SDS011;73873;40.084;32.908;2024-03-02T06:26:33;23.48;;;9.88;;
72584;SDS011;73873;40.084;32.908;2024-03-02T06:29:00;23.33;;;10.63;;
72584;SDS011;73873;40.084;32.908;2024-03-02T06:31:27;29.20;;;10.20;;
72584;SDS011;73873;40.084;32.908;2024-03-02T06:33:54;25.48;;;10.32;;
72584;SDS011;73873;40.084;32.908;2024-03-02T06:36:21;22.23;;;11.02;;
72584;SDS011;73873;40.084;32.908;2024-03-02T06:38:48;24.65;;;10.50;;
72584;SDS011;73873;40.084;32.908;2024-03-02T06:41:15;29.48;;;12.15;;
72584;SDS011;73873;40.084;32.908;2024-03-02T06:43:42;34.00;;;13.03;;
72584;SDS011;73873;40.084;32.908;2024-03-02T06:46:09;23.35;;;10.75;;
72584;SDS011;73873;40.084;32.908;2024-03-02T06:48:36;26.15;;;10.05;;
72584;SDS011;73873;40.084;32.908;2024-03-02T06:51:03;22.77;;;10.15;;
72584;SDS011;73873;40.084;32.908;2024-03-02T06:53:30;23.92;;;9.90;;
72584;SDS011;73873;40.084;32.908;2024-03-02T06:55:57;23.97;;;11.53;;
72584;SDS011;73873;40.084;32.908;2024-03-02T06:58:24;26.30;;;12.15;;
72584;SDS011;73873;40.084;32.908;2024-03-02T07:00:51;32.42;;;12.95;;
72584;SDS011;73873;40.084;32.908;2024-03-02T07:03:18;28.25;;;12.82;;
72584;SDS011;73873;40.084;32.908;2024-03-02T07:05:44;52.08;;;20.48;;
72584;SDS011;73873;40.084;32.908;2024-03-02T07:08:11;37.27;;;17.23;;
72584;SDS011;73873;40.084;32.908;2024-03-02T07:10:38;43.50;;;18.48;;
72584;SDS011;73873;40.084;32.908;2024-03-02T07:13:05;43.35;;;18.90;;
72584;SDS011;73873;40.084;32.908;2024-03-02T07:15:32;30.20;;;14.10;;
72584;SDS011;73873;40.084;32.908;2024-03-02T07:17:59;35.28;;;15.02;;
72584;SDS011;73873;40.084;32.908;2024-03-02T07:20:26;39.67;;;16.80;;
72584;SDS011;73873;40.084;32.908;2024-03-02T07:22:53;40.13;;;16.30;;
72584;SDS011;73873;40.084;32.908;2024-03-02T07:25:20;48.42;;;18.63;;
72584;SDS011;73873;40.084;32.908;2024-03-02T07:27:50;50.10;;;19.20;;
72584;SDS011;73873;40.084;32.908;2024-03-02T07:30:17;49.30;;;18.08;;
72584;SDS011;73873;40.084;32.908;2024-03-02T07:32:45;40.83;;;16.93;;
72584;SDS011;73873;40.084;32.908;2024-03-02T07:35:12;39.20;;;17.33;;
72584;SDS011;73873;40.084;32.908;2024-03-02T07:37:40;46.53;;;18.30;;
72584;SDS011;73873;40.084;32.908;2024-03-02T07:40:08;33.85;;;15.07;;
72584;SDS011;73873;40.084;32.908;2024-03-02T07:42:36;25.70;;;11.75;;
72584;SDS011;73873;40.084;32.908;2024-03-02T07:45:04;20.07;;;10.13;;
72584;SDS011;73873;40.084;32.908;2024-03-02T07:47:32;33.00;;;14.10;;
72584;SDS011;73873;40.084;32.908;2024-03-02T07:50:00;34.10;;;14.63;;
72584;SDS011;73873;40.084;32.908;2024-03-02T07:52:27;31.50;;;14.10;;
72584;SDS011;73873;40.084;32.908;2024-03-02T07:54:54;34.58;;;15.90;;
72584;SDS011;73873;40.084;32.908;2024-03-02T07:57:21;44.13;;;18.23;;
72584;SDS011;73873;40.084;32.908;2024-03-02T07:59:48;50.35;;;21.30;;
72584;SDS011;73873;40.084;32.908;2024-03-02T08:02:16;50.35;;;23.17;;
72584;SDS011;73873;40.084;32.908;2024-03-02T08:04:43;56.10;;;22.20;;
72584;SDS011;73873;40.084;32.908;2024-03-02T08:07:10;49.50;;;21.58;;
72584;SDS011;73873;40.084;32.908;2024-03-02T08:09:37;42.20;;;20.00;;
72584;SDS011;73873;40.084;32.908;2024-03-02T08:12:04;34.90;;;16.73;;
72584;SDS011;73873;40.084;32.908;2024-03-02T08:14:31;29.73;;;14.80;;
72584;SDS011;73873;40.084;32.908;2024-03-02T08:16:58;33.08;;;15.82;;
72584;SDS011;73873;40.084;32.908;2024-03-02T08:19:25;30.60;;;15.52;;
72584;SDS011;73873;40.084;32.908;2024-03-02T08:21:52;28.67;;;12.77;;
72584;SDS011;73873;40.084;32.908;2024-03-02T08:24:19;30.10;;;12.88;;
72584;SDS011;73873;40.084;32.908;2024-03-02T08:26:46;25.33;;;12.18;;
72584;SDS011;73873;40.084;32.908;2024-03-02T08:29:13;25.45;;;12.30;;
72584;SDS011;73873;40.084;32.908;2024-03-02T08:31:39;23.73;;;12.43;;
72584;SDS011;73873;40.084;32.908;2024-03-02T08:34:07;20.27;;;9.83;;
72584;SDS011;73873;40.084;32.908;2024-03-02T08:36:34;28.70;;;13.68;;
72584;SDS011;73873;40.084;32.908;2024-03-02T08:39:01;40.30;;;15.93;;
72584;SDS011;73873;40.084;32.908;2024-03-02T08:41:28;37.92;;;15.45;;
72584;SDS011;73873;40.084;32.908;2024-03-02T08:43:55;24.25;;;11.60;;
72584;SDS011;73873;40.084;32.908;2024-03-02T08:46:22;28.73;;;13.43;;
72584;SDS011;73873;40.084;32.908;2024-03-02T08:48:49;24.58;;;12.27;;
72584;SDS011;73873;40.084;32.908;2024-03-02T08:51:16;28.38;;;12.98;;
72584;SDS011;73873;40.084;32.908;2024-03-02T08:53:43;39.30;;;11.90;;
72584;SDS011;73873;40.084;32.908;2024-03-02T08:56:10;25.48;;;11.25;;
72584;SDS011;73873;40.084;32.908;2024-03-02T08:58:37;27.50;;;13.13;;
72584;SDS011;73873;40.084;32.908;2024-03-02T09:01:04;30.13;;;13.55;;
72584;SDS011;73873;40.084;32.908;2024-03-02T09:03:31;26.48;;;12.65;;
72584;SDS011;73873;40.084;32.908;2024-03-02T09:05:58;28.10;;;11.98;;
72584;SDS011;73873;40.084;32.908;2024-03-02T09:08:25;28.00;;;12.27;;
72584;SDS011;73873;40.084;32.908;2024-03-02T09:10:52;26.60;;;12.77;;
72584;SDS011;73873;40.084;32.908;2024-03-02T09:13:19;28.10;;;13.77;;
72584;SDS011;73873;40.084;32.908;2024-03-02T09:15:46;29.13;;;13.73;;
72584;SDS011;73873;40.084;32.908;2024-03-02T09:18:13;28.65;;;14.07;;
72584;SDS011;73873;40.084;32.908;2024-03-02T09:20:40;28.00;;;13.80;;
72584;SDS011;73873;40.084;32.908;2024-03-02T09:23:07;28.10;;;13.03;;
72584;SDS011;73873;40.084;32.908;2024-03-02T09:25:34;28.02;;;13.57;;
72584;SDS011;73873;40.084;32.908;2024-03-02T09:28:01;26.15;;;13.75;;
72584;SDS011;73873;40.084;32.908;2024-03-02T09:30:28;28.00;;;14.57;;
72584;SDS011;73873;40.084;32.908;2024-03-02T09:32:55;29.98;;;14.05;;
72584;SDS011;73873;40.084;32.908;2024-03-02T09:35:42;27.83;;;13.77;;
72584;SDS011;73873;40.084;32.908;2024-03-02T09:38:09;28.65;;;13.90;;
72584;SDS011;73873;40.084;32.908;2024-03-02T09:40:36;28.45;;;13.88;;
72584;SDS011;73873;40.084;32.908;2024-03-02T09:43:03;30.05;;;13.90;;
72584;SDS011;73873;40.084;32.908;2024-03-02T09:45:30;27.42;;;13.65;;
72584;SDS011;73873;40.084;32.908;2024-03-02T09:47:58;23.40;;;13.13;;
72584;SDS011;73873;40.084;32.908;2024-03-02T09:50:25;27.60;;;14.02;;
72584;SDS011;73873;40.084;32.908;2024-03-02T09:52:52;29.70;;;14.15;;
72584;SDS011;73873;40.084;32.908;2024-03-02T09:55:19;31.13;;;14.70;;
72584;SDS011;73873;40.084;32.908;2024-03-02T09:57:47;28.98;;;14.80;;
72584;SDS011;73873;40.084;32.908;2024-03-02T10:00:14;28.10;;;14.83;;
72584;SDS011;73873;40.084;32.908;2024-03-02T10:02:42;27.70;;;15.18;;
72584;SDS011;73873;40.084;32.908;2024-03-02T10:05:09;28.50;;;15.23;;
72584;SDS011;73873;40.084;32.908;2024-03-02T10:07:36;28.63;;;15.00;;
72584;SDS011;73873;40.084;32.908;2024-03-02T10:10:13;29.67;;;15.90;;
72584;SDS011;73873;40.084;32.908;2024-03-02T10:12:41;28.27;;;15.30;;
72584;SDS011;73873;40.084;32.908;2024-03-02T10:15:09;30.75;;;16.38;;
72584;SDS011;73873;40.084;32.908;2024-03-02T10:17:36;28.30;;;13.52;;
72584;SDS011;73873;40.084;32.908;2024-03-02T10:22:53;28.30;;;13.32;;
72584;SDS011;73873;40.084;32.908;2024-03-02T10:25:33;29.37;;;12.10;;
72584;SDS011;73873;40.084;32.908;2024-03-02T10:28:03;23.15;;;10.32;;
72584;SDS011;73873;40.084;32.908;2024-03-02T10:30:30;20.75;;;10.75;;
72584;SDS011;73873;40.084;32.908;2024-03-02T10:32:57;21.52;;;10.65;;
72584;SDS011;73873;40.084;32.908;2024-03-02T10:35:24;22.48;;;10.85;;
72584;SDS011;73873;40.084;32.908;2024-03-02T10:37:51;20.83;;;11.40;;
72584;SDS011;73873;40.084;32.908;2024-03-02T10:40:22;25.73;;;11.23;;
72584;SDS011;73873;40.084;32.908;2024-03-02T10:42:50;27.55;;;12.10;;
72584;SDS011;73873;40.084;32.908;2024-03-02T10:45:17;22.52;;;10.40;;
72584;SDS011;73873;40.084;32.908;2024-03-02T10:47:46;26.08;;;12.32;;
72584;SDS011;73873;40.084;32.908;2024-03-02T10:50:14;19.63;;;9.37;;
72584;SDS011;73873;40.084;32.908;2024-03-02T10:52:41;14.07;;;7.15;;
72584;SDS011;73873;40.084;32.908;2024-03-02T10:55:09;16.92;;;8.55;;
72584;SDS011;73873;40.084;32.908;2024-03-02T10:57:45;17.45;;;8.52;;
72584;SDS011;73873;40.084;32.908;2024-03-02T11:00:18;16.42;;;7.95;;
72584;SDS011;73873;40.084;32.908;2024-03-02T11:02:47;13.40;;;6.87;;
72584;SDS011;73873;40.084;32.908;2024-03-02T11:05:26;14.38;;;6.53;;
72584;SDS011;73873;40.084;32.908;2024-03-02T11:07:58;17.65;;;6.75;;
72584;SDS011;73873;40.084;32.908;2024-03-02T11:10:45;11.10;;;5.72;;
72584;SDS011;73873;40.084;32.908;2024-03-02T11:13:17;14.77;;;6.95;;
72584;SDS011;73873;40.084;32.908;2024-03-02T11:15:59;13.83;;;6.80;;
72584;SDS011;73873;40.084;32.908;2024-03-02T11:18:36;19.10;;;8.23;;
72584;SDS011;73873;40.084;32.908;2024-03-02T11:21:04;15.25;;;7.38;;
72584;SDS011;73873;40.084;32.908;2024-03-02T11:23:34;15.35;;;6.80;;
72584;SDS011;73873;40.084;32.908;2024-03-02T11:26:17;14.00;;;7.30;;
72584;SDS011;73873;40.084;32.908;2024-03-02T11:28:44;14.70;;;6.80;;
72584;SDS011;73873;40.084;32.908;2024-03-02T11:31:11;18.17;;;8.50;;
72584;SDS011;73873;40.084;32.908;2024-03-02T11:33:39;15.80;;;7.82;;
72584;SDS011;73873;40.084;32.908;2024-03-02T11:36:06;11.63;;;5.82;;
72584;SDS011;73873;40.084;32.908;2024-03-02T11:38:35;14.48;;;6.65;;
72584;SDS011;73873;40.084;32.908;2024-03-02T11:41:05;17.20;;;6.90;;
72584;SDS011;73873;40.084;32.908;2024-03-02T11:43:33;14.85;;;6.00;;
72584;SDS011;73873;40.084;32.908;2024-03-02T11:46:03;11.70;;;4.90;;
72584;SDS011;73873;40.084;32.908;2024-03-02T11:48:32;11.85;;;4.45;;
72584;SDS011;73873;40.084;32.908;2024-03-02T11:51:01;10.73;;;3.97;;
72584;SDS011;73873;40.084;32.908;2024-03-02T11:53:28;9.67;;;4.10;;
72584;SDS011;73873;40.084;32.908;2024-03-02T11:56:01;7.45;;;3.50;;
72584;SDS011;73873;40.084;32.908;2024-03-02T11:58:28;9.45;;;3.88;;
72584;SDS011;73873;40.084;32.908;2024-03-02T12:00:55;16.88;;;5.40;;
72584;SDS011;73873;40.084;32.908;2024-03-02T12:03:23;12.88;;;5.65;;
72584;SDS011;73873;40.084;32.908;2024-03-02T12:05:54;14.17;;;5.90;;
72584;SDS011;73873;40.084;32.908;2024-03-02T12:08:21;14.70;;;6.55;;
72584;SDS011;73873;40.084;32.908;2024-03-02T12:11:01;16.05;;;7.78;;
72584;SDS011;73873;40.084;32.908;2024-03-02T12:13:30;15.13;;;8.48;;
72584;SDS011;73873;40.084;32.908;2024-03-02T12:15:57;18.17;;;8.40;;
72584;SDS011;73873;40.084;32.908;2024-03-02T12:18:24;15.73;;;8.00;;
72584;SDS011;73873;40.084;32.908;2024-03-02T12:20:52;17.23;;;7.20;;
72584;SDS011;73873;40.084;32.908;2024-03-02T12:23:20;15.60;;;6.75;;
72584;SDS011;73873;40.084;32.908;2024-03-02T12:25:47;14.80;;;6.75;;
72584;SDS011;73873;40.084;32.908;2024-03-02T12:28:14;13.65;;;7.38;;
72584;SDS011;73873;40.084;32.908;2024-03-02T12:30:41;15.30;;;7.30;;
72584;SDS011;73873;40.084;32.908;2024-03-02T12:33:10;16.40;;;8.00;;
72584;SDS011;73873;40.084;32.908;2024-03-02T12:35:37;14.55;;;7.63;;
72584;SDS011;73873;40.084;32.908;2024-03-02T12:38:04;17.20;;;7.78;;
72584;SDS011;73873;40.084;32.908;2024-03-02T12:40:31;21.67;;;7.60;;
72584;SDS011;73873;40.084;32.908;2024-03-02T12:42:58;18.83;;;7.80;;
72584;SDS011;73873;40.084;32.908;2024-03-02T12:45:25;16.10;;;7.20;;
72584;SDS011;73873;40.084;32.908;2024-03-02T12:47:53;15.48;;;7.43;;
72584;SDS011;73873;40.084;32.908;2024-03-02T12:50:20;15.20;;;7.32;;
72584;SDS011;73873;40.084;32.908;2024-03-02T12:52:54;13.82;;;6.72;;
72584;SDS011;73873;40.084;32.908;2024-03-02T12:55:21;13.53;;;6.93;;
72584;SDS011;73873;40.084;32.908;2024-03-02T12:57:50;14.73;;;7.05;;
72584;SDS011;73873;40.084;32.908;2024-03-02T13:00:19;15.10;;;6.63;;
72584;SDS011;73873;40.084;32.908;2024-03-02T13:02:47;10.75;;;5.43;;
72584;SDS011;73873;40.084;32.908;2024-03-02T13:05:14;14.13;;;5.22;;
72584;SDS011;73873;40.084;32.908;2024-03-02T13:07:42;11.33;;;5.23;;
72584;SDS011;73873;40.084;32.908;2024-03-02T13:10:09;12.25;;;4.85;;
72584;SDS011;73873;40.084;32.908;2024-03-02T13:12:36;12.23;;;5.30;;
72584;SDS011;73873;40.084;32.908;2024-03-02T13:15:04;9.45;;;5.05;;
72584;SDS011;73873;40.084;32.908;2024-03-02T13:17:33;11.07;;;4.55;;
72584;SDS011;73873;40.084;32.908;2024-03-02T13:20:04;12.53;;;4.87;;
72584;SDS011;73873;40.084;32.908;2024-03-02T13:22:31;17.40;;;4.38;;
72584;SDS011;73873;40.084;32.908;2024-03-02T13:24:58;9.93;;;4.05;;
72584;SDS011;73873;40.084;32.908;2024-03-02T13:27:25;11.57;;;4.22;;
72584;SDS011;73873;40.084;32.908;2024-03-02T13:29:53;8.88;;;4.32;;
72584;SDS011;73873;40.084;32.908;2024-03-02T13:32:20;9.87;;;4.13;;
72584;SDS011;73873;40.084;32.908;2024-03-02T13:34:47;10.35;;;4.30;;
72584;SDS011;73873;40.084;32.908;2024-03-02T13:37:14;9.95;;;4.65;;
72584;SDS011;73873;40.084;32.908;2024-03-02T13:39:41;8.70;;;4.10;;
72584;SDS011;73873;40.084;32.908;2024-03-02T13:42:09;8.90;;;3.92;;
72584;SDS011;73873;40.084;32.908;2024-03-02T13:44:36;8.20;;;3.80;;
72584;SDS011;73873;40.084;32.908;2024-03-02T13:47:03;8.30;;;3.20;;
72584;SDS011;73873;40.084;32.908;2024-03-02T13:49:31;6.97;;;3.40;;
72584;SDS011;73873;40.084;32.908;2024-03-02T13:52:00;8.38;;;3.70;;
72584;SDS011;73873;40.084;32.908;2024-03-02T13:54:27;14.30;;;4.65;;
72584;SDS011;73873;40.084;32.908;2024-03-02T13:56:54;11.77;;;3.97;;
72584;SDS011;73873;40.084;32.908;2024-03-02T13:59:21;8.45;;;3.50;;
72584;SDS011;73873;40.084;32.908;2024-03-02T14:01:48;10.77;;;3.35;;
72584;SDS011;73873;40.084;32.908;2024-03-02T14:04:15;7.25;;;3.30;;
72584;SDS011;73873;40.084;32.908;2024-03-02T14:06:43;9.15;;;3.58;;
72584;SDS011;73873;40.084;32.908;2024-03-02T14:09:10;7.30;;;3.20;;
72584;SDS011;73873;40.084;32.908;2024-03-02T14:11:37;9.13;;;3.42;;
72584;SDS011;73873;40.084;32.908;2024-03-02T14:14:04;7.38;;;3.38;;
72584;SDS011;73873;40.084;32.908;2024-03-02T14:16:31;10.35;;;3.40;;
72584;SDS011;73873;40.084;32.908;2024-03-02T14:18:58;8.32;;;3.22;;
72584;SDS011;73873;40.084;32.908;2024-03-02T14:21:25;9.50;;;3.30;;
72584;SDS011;73873;40.084;32.908;2024-03-02T14:23:52;10.30;;;3.58;;
72584;SDS011;73873;40.084;32.908;2024-03-02T14:26:19;8.80;;;3.75;;
72584;SDS011;73873;40.084;32.908;2024-03-02T14:28:46;8.05;;;3.55;;